sensor_id;sensor_type;location;lat;lon;timestamp;P1;durP1;ratioP1;P2;durP2;ratioP2
65189;SDS011;51777;53.570;9.984;2022-08-16T00:01:31;8.82;;;5.20;;
65189;SDS011;51777;53.570;9.984;2022-08-16T00:03:56;6.35;;;5.25;;
65189;SDS011;51777;53.570;9.984;2022-08-16T00:06:23;7.32;;;5.60;;
65189;SDS011;51777;53.570;9.984;2022-08-16T00:08:49;8.25;;;5.43;;
65189;SDS011;51777;53.570;9.984;2022-08-16T00:11:15;9.25;;;5.47;;
65189;SDS011;51777;53.570;9.984;2022-08-16T00:13:40;10.50;;;5.82;;
65189;SDS011;51777;53.570;9.984;2022-08-16T00:16:05;10.43;;;6.13;;
65189;SDS011;51777;53.570;9.984;2022-08-16T00:18:31;7.25;;;5.00;;
65189;SDS011;51777;53.570;9.984;2022-08-16T00:20:57;8.23;;;5.22;;
65189;SDS011;51777;53.570;9.984;2022-08-16T00:23:22;6.75;;;5.30;;
65189;SDS011;51777;53.570;9.984;2022-08-16T00:25:48;10.23;;;5.70;;
65189;SDS011;51777;53.570;9.984;2022-08-16T00:28:13;9.63;;;5.28;;
65189;SDS011;51777;53.570;9.984;2022-08-16T00:30:39;9.75;;;5.55;;
65189;SDS011;51777;53.570;9.984;2022-08-16T00:33:05;6.57;;;5.80;;
65189;SDS011;51777;53.570;9.984;2022-08-16T00:35:32;8.55;;;6.25;;
65189;SDS011;51777;53.570;9.984;2022-08-16T00:37:59;11.15;;;7.00;;
65189;SDS011;51777;53.570;9.984;2022-08-16T00:40:32;9.60;;;6.97;;
65189;SDS011;51777;53.570;9.984;2022-08-16T00:43:10;8.07;;;6.70;;
65189;SDS011;51777;53.570;9.984;2022-08-16T00:45:40;12.55;;;7.10;;
65189;SDS011;51777;53.570;9.984;2022-08-16T00:48:29;11.13;;;6.95;;
65189;SDS011;51777;53.570;9.984;2022-08-16T00:50:55;8.98;;;6.97;;
65189;SDS011;51777;53.570;9.984;2022-08-16T00:53:21;11.73;;;7.47;;
65189;SDS011;51777;53.570;9.984;2022-08-16T00:55:51;13.57;;;7.43;;
65189;SDS011;51777;53.570;9.984;2022-08-16T00:58:19;10.13;;;7.35;;
65189;SDS011;51777;53.570;9.984;2022-08-16T01:00:47;11.38;;;7.55;;
65189;SDS011;51777;53.570;9.984;2022-08-16T01:03:15;12.95;;;8.38;;
65189;SDS011;51777;53.570;9.984;2022-08-16T01:05:45;9.60;;;7.70;;
65189;SDS011;51777;53.570;9.984;2022-08-16T01:08:12;13.43;;;7.75;;
65189;SDS011;51777;53.570;9.984;2022-08-16T01:10:39;9.90;;;7.95;;
65189;SDS011;51777;53.570;9.984;2022-08-16T01:13:06;11.10;;;7.82;;
65189;SDS011;51777;53.570;9.984;2022-08-16T01:15:35;11.85;;;7.85;;
65189;SDS011;51777;53.570;9.984;2022-08-16T01:18:03;11.68;;;8.40;;
65189;SDS011;51777;53.570;9.984;2022-08-16T01:20:34;12.60;;;8.25;;
65189;SDS011;51777;53.570;9.984;2022-08-16T01:23:16;13.60;;;8.27;;
65189;SDS011;51777;53.570;9.984;2022-08-16T01:25:48;12.50;;;8.40;;
65189;SDS011;51777;53.570;9.984;2022-08-16T01:28:17;15.13;;;8.85;;
65189;SDS011;51777;53.570;9.984;2022-08-16T01:30:46;12.02;;;8.13;;
65189;SDS011;51777;53.570;9.984;2022-08-16T01:33:15;11.38;;;7.97;;
65189;SDS011;51777;53.570;9.984;2022-08-16T01:35:46;12.95;;;7.65;;
65189;SDS011;51777;53.570;9.984;2022-08-16T01:41:01;15.95;;;8.10;;
65189;SDS011;51777;53.570;9.984;2022-08-16T01:43:32;14.65;;;8.85;;
65189;SDS011;51777;53.570;9.984;2022-08-16T01:46:00;9.65;;;8.18;;
65189;SDS011;51777;53.570;9.984;2022-08-16T01:48:29;12.25;;;8.35;;
65189;SDS011;51777;53.570;9.984;2022-08-16T01:50:57;12.63;;;8.30;;
65189;SDS011;51777;53.570;9.984;2022-08-16T01:53:24;15.38;;;9.07;;
65189;SDS011;51777;53.570;9.984;2022-08-16T01:55:50;11.82;;;8.50;;
65189;SDS011;51777;53.570;9.984;2022-08-16T01:58:16;13.45;;;8.98;;
65189;SDS011;51777;53.570;9.984;2022-08-16T02:00:43;12.70;;;8.65;;
65189;SDS011;51777;53.570;9.984;2022-08-16T02:03:09;9.60;;;8.57;;
65189;SDS011;51777;53.570;9.984;2022-08-16T02:05:34;13.65;;;8.77;;
65189;SDS011;51777;53.570;9.984;2022-08-16T02:08:01;14.50;;;8.63;;
65189;SDS011;51777;53.570;9.984;2022-08-16T02:10:28;16.10;;;9.63;;
65189;SDS011;51777;53.570;9.984;2022-08-16T02:12:54;12.73;;;8.65;;
65189;SDS011;51777;53.570;9.984;2022-08-16T02:15:22;12.70;;;9.07;;
65189;SDS011;51777;53.570;9.984;2022-08-16T02:17:49;13.35;;;9.00;;
65189;SDS011;51777;53.570;9.984;2022-08-16T02:20:15;11.60;;;8.90;;
65189;SDS011;51777;53.570;9.984;2022-08-16T02:22:41;13.43;;;9.23;;
65189;SDS011;51777;53.570;9.984;2022-08-16T02:25:09;16.17;;;9.10;;
65189;SDS011;51777;53.570;9.984;2022-08-16T02:27:39;15.90;;;9.60;;
65189;SDS011;51777;53.570;9.984;2022-08-16T02:30:08;17.60;;;9.77;;
65189;SDS011;51777;53.570;9.984;2022-08-16T02:32:38;10.90;;;9.40;;
65189;SDS011;51777;53.570;9.984;2022-08-16T02:35:05;13.88;;;9.02;;
65189;SDS011;51777;53.570;9.984;2022-08-16T02:37:31;12.23;;;10.20;;
65189;SDS011;51777;53.570;9.984;2022-08-16T02:39:57;15.93;;;9.98;;
65189;SDS011;51777;53.570;9.984;2022-08-16T02:42:22;12.65;;;9.63;;
65189;SDS011;51777;53.570;9.984;2022-08-16T02:44:48;17.90;;;11.20;;
65189;SDS011;51777;53.570;9.984;2022-08-16T02:47:13;17.10;;;11.13;;
65189;SDS011;51777;53.570;9.984;2022-08-16T02:49:38;16.20;;;10.30;;
65189;SDS011;51777;53.570;9.984;2022-08-16T02:52:04;16.02;;;11.20;;
65189;SDS011;51777;53.570;9.984;2022-08-16T02:54:29;15.75;;;10.77;;
65189;SDS011;51777;53.570;9.984;2022-08-16T02:56:55;15.43;;;11.15;;
65189;SDS011;51777;53.570;9.984;2022-08-16T02:59:20;13.30;;;11.30;;
65189;SDS011;51777;53.570;9.984;2022-08-16T03:01:45;14.30;;;10.77;;
65189;SDS011;51777;53.570;9.984;2022-08-16T03:04:11;14.30;;;11.45;;
65189;SDS011;51777;53.570;9.984;2022-08-16T03:06:36;19.77;;;11.15;;
65189;SDS011;51777;53.570;9.984;2022-08-16T03:09:02;17.98;;;11.93;;
65189;SDS011;51777;53.570;9.984;2022-08-16T03:11:28;20.95;;;12.20;;
65189;SDS011;51777;53.570;9.984;2022-08-16T03:13:55;15.70;;;10.65;;
65189;SDS011;51777;53.570;9.984;2022-08-16T03:16:21;18.58;;;11.43;;
65189;SDS011;51777;53.570;9.984;2022-08-16T03:18:48;15.05;;;11.30;;
65189;SDS011;51777;53.570;9.984;2022-08-16T03:21:13;16.13;;;12.02;;
65189;SDS011;51777;53.570;9.984;2022-08-16T03:23:39;22.95;;;12.05;;
65189;SDS011;51777;53.570;9.984;2022-08-16T03:26:05;16.90;;;12.20;;
65189;SDS011;51777;53.570;9.984;2022-08-16T03:28:30;17.23;;;12.77;;
65189;SDS011;51777;53.570;9.984;2022-08-16T03:30:56;19.17;;;12.90;;
65189;SDS011;51777;53.570;9.984;2022-08-16T03:33:21;17.45;;;13.27;;
65189;SDS011;51777;53.570;9.984;2022-08-16T03:35:47;17.85;;;12.48;;
65189;SDS011;51777;53.570;9.984;2022-08-16T03:38:13;19.40;;;12.85;;
65189;SDS011;51777;53.570;9.984;2022-08-16T03:40:40;18.50;;;12.98;;
65189;SDS011;51777;53.570;9.984;2022-08-16T03:43:07;17.45;;;13.68;;
65189;SDS011;51777;53.570;9.984;2022-08-16T03:45:34;23.23;;;13.52;;
65189;SDS011;51777;53.570;9.984;2022-08-16T03:48:01;17.23;;;13.68;;
65189;SDS011;51777;53.570;9.984;2022-08-16T03:50:28;18.92;;;14.10;;
65189;SDS011;51777;53.570;9.984;2022-08-16T03:52:54;16.95;;;14.00;;
65189;SDS011;51777;53.570;9.984;2022-08-16T03:55:19;21.38;;;14.52;;
65189;SDS011;51777;53.570;9.984;2022-08-16T03:57:45;17.20;;;13.82;;
65189;SDS011;51777;53.570;9.984;2022-08-16T04:00:14;18.35;;;13.50;;
65189;SDS011;51777;53.570;9.984;2022-08-16T04:02:42;17.98;;;14.00;;
65189;SDS011;51777;53.570;9.984;2022-08-16T04:05:09;21.58;;;14.57;;
65189;SDS011;51777;53.570;9.984;2022-08-16T04:07:36;22.55;;;14.60;;
65189;SDS011;51777;53.570;9.984;2022-08-16T04:10:03;22.92;;;14.52;;
65189;SDS011;51777;53.570;9.984;2022-08-16T04:12:33;20.20;;;14.23;;
65189;SDS011;51777;53.570;9.984;2022-08-16T04:14:58;22.27;;;14.95;;
65189;SDS011;51777;53.570;9.984;2022-08-16T04:17:26;25.42;;;14.90;;
65189;SDS011;51777;53.570;9.984;2022-08-16T04:19:52;21.67;;;14.93;;
65189;SDS011;51777;53.570;9.984;2022-08-16T04:22:17;23.95;;;14.80;;
65189;SDS011;51777;53.570;9.984;2022-08-16T04:24:43;21.35;;;14.30;;
65189;SDS011;51777;53.570;9.984;2022-08-16T04:27:09;18.10;;;13.90;;
65189;SDS011;51777;53.570;9.984;2022-08-16T04:29:34;19.20;;;14.50;;
65189;SDS011;51777;53.570;9.984;2022-08-16T04:32:00;24.58;;;14.75;;
65189;SDS011;51777;53.570;9.984;2022-08-16T04:34:28;19.35;;;14.52;;
65189;SDS011;51777;53.570;9.984;2022-08-16T04:36:56;21.88;;;15.25;;
65189;SDS011;51777;53.570;9.984;2022-08-16T04:39:23;19.55;;;14.70;;
65189;SDS011;51777;53.570;9.984;2022-08-16T04:41:50;20.55;;;13.75;;
65189;SDS011;51777;53.570;9.984;2022-08-16T04:44:15;20.25;;;13.82;;
65189;SDS011;51777;53.570;9.984;2022-08-16T04:46:41;17.92;;;13.52;;
65189;SDS011;51777;53.570;9.984;2022-08-16T04:49:07;16.70;;;13.95;;
65189;SDS011;51777;53.570;9.984;2022-08-16T04:51:33;17.98;;;14.15;;
65189;SDS011;51777;53.570;9.984;2022-08-16T04:53:59;18.75;;;14.30;;
65189;SDS011;51777;53.570;9.984;2022-08-16T04:56:24;25.10;;;14.57;;
65189;SDS011;51777;53.570;9.984;2022-08-16T04:58:50;18.02;;;13.90;;
65189;SDS011;51777;53.570;9.984;2022-08-16T05:01:16;18.15;;;14.48;;
65189;SDS011;51777;53.570;9.984;2022-08-16T05:03:42;18.55;;;13.57;;
65189;SDS011;51777;53.570;9.984;2022-08-16T05:06:08;23.23;;;14.43;;
65189;SDS011;51777;53.570;9.984;2022-08-16T05:08:35;24.17;;;14.40;;
65189;SDS011;51777;53.570;9.984;2022-08-16T05:11:01;22.90;;;15.13;;
65189;SDS011;51777;53.570;9.984;2022-08-16T05:13:30;26.17;;;14.95;;
65189;SDS011;51777;53.570;9.984;2022-08-16T05:15:56;21.95;;;14.43;;
65189;SDS011;51777;53.570;9.984;2022-08-16T05:18:21;21.67;;;15.07;;
65189;SDS011;51777;53.570;9.984;2022-08-16T05:20:47;24.50;;;15.45;;
65189;SDS011;51777;53.570;9.984;2022-08-16T05:23:12;27.13;;;16.02;;
65189;SDS011;51777;53.570;9.984;2022-08-16T05:25:38;27.40;;;16.15;;
65189;SDS011;51777;53.570;9.984;2022-08-16T05:28:04;24.05;;;16.05;;
65189;SDS011;51777;53.570;9.984;2022-08-16T05:30:29;28.33;;;16.42;;
65189;SDS011;51777;53.570;9.984;2022-08-16T05:32:56;25.58;;;16.60;;
65189;SDS011;51777;53.570;9.984;2022-08-16T05:35:21;30.63;;;16.38;;
65189;SDS011;51777;53.570;9.984;2022-08-16T05:37:47;23.77;;;15.52;;
65189;SDS011;51777;53.570;9.984;2022-08-16T05:40:12;24.38;;;16.55;;
65189;SDS011;51777;53.570;9.984;2022-08-16T05:42:38;24.55;;;15.98;;
65189;SDS011;51777;53.570;9.984;2022-08-16T05:45:04;21.27;;;15.52;;
65189;SDS011;51777;53.570;9.984;2022-08-16T05:47:30;22.45;;;14.80;;
65189;SDS011;51777;53.570;9.984;2022-08-16T05:49:56;20.70;;;14.40;;
65189;SDS011;51777;53.570;9.984;2022-08-16T05:52:21;21.92;;;14.18;;
65189;SDS011;51777;53.570;9.984;2022-08-16T05:54:46;19.95;;;13.57;;
65189;SDS011;51777;53.570;9.984;2022-08-16T05:57:12;22.60;;;13.38;;
65189;SDS011;51777;53.570;9.984;2022-08-16T05:59:39;22.35;;;13.52;;
65189;SDS011;51777;53.570;9.984;2022-08-16T06:02:05;18.83;;;13.10;;
65189;SDS011;51777;53.570;9.984;2022-08-16T06:04:30;19.98;;;13.43;;
65189;SDS011;51777;53.570;9.984;2022-08-16T06:06:56;16.23;;;11.88;;
65189;SDS011;51777;53.570;9.984;2022-08-16T06:09:22;19.55;;;12.73;;
65189;SDS011;51777;53.570;9.984;2022-08-16T06:11:49;17.73;;;12.30;;
65189;SDS011;51777;53.570;9.984;2022-08-16T06:14:14;16.02;;;12.25;;
65189;SDS011;51777;53.570;9.984;2022-08-16T06:16:40;16.27;;;11.40;;
65189;SDS011;51777;53.570;9.984;2022-08-16T06:19:05;16.67;;;12.13;;
65189;SDS011;51777;53.570;9.984;2022-08-16T06:21:31;19.30;;;11.60;;
65189;SDS011;51777;53.570;9.984;2022-08-16T06:23:57;15.18;;;11.52;;
65189;SDS011;51777;53.570;9.984;2022-08-16T06:26:22;21.33;;;11.23;;
65189;SDS011;51777;53.570;9.984;2022-08-16T06:28:50;16.17;;;10.60;;
65189;SDS011;51777;53.570;9.984;2022-08-16T06:31:16;14.80;;;10.88;;
65189;SDS011;51777;53.570;9.984;2022-08-16T06:33:42;16.55;;;10.63;;
65189;SDS011;51777;53.570;9.984;2022-08-16T06:36:09;14.73;;;10.60;;
65189;SDS011;51777;53.570;9.984;2022-08-16T06:38:35;13.50;;;9.68;;
65189;SDS011;51777;53.570;9.984;2022-08-16T06:41:02;16.33;;;9.82;;
65189;SDS011;51777;53.570;9.984;2022-08-16T06:43:29;16.17;;;9.60;;
65189;SDS011;51777;53.570;9.984;2022-08-16T06:45:55;16.00;;;10.20;;
65189;SDS011;51777;53.570;9.984;2022-08-16T06:48:20;14.63;;;9.00;;
65189;SDS011;51777;53.570;9.984;2022-08-16T06:50:45;16.17;;;9.32;;
65189;SDS011;51777;53.570;9.984;2022-08-16T06:53:16;16.52;;;9.43;;
65189;SDS011;51777;53.570;9.984;2022-08-16T06:55:41;16.85;;;9.57;;
65189;SDS011;51777;53.570;9.984;2022-08-16T06:58:08;16.75;;;9.48;;
65189;SDS011;51777;53.570;9.984;2022-08-16T07:00:34;15.05;;;8.80;;
65189;SDS011;51777;53.570;9.984;2022-08-16T07:03:01;11.88;;;8.63;;
65189;SDS011;51777;53.570;9.984;2022-08-16T07:05:27;16.38;;;8.52;;
65189;SDS011;51777;53.570;9.984;2022-08-16T07:07:56;17.48;;;8.13;;
65189;SDS011;51777;53.570;9.984;2022-08-16T07:10:22;14.45;;;8.98;;
65189;SDS011;51777;53.570;9.984;2022-08-16T07:12:47;22.48;;;8.25;;
65189;SDS011;51777;53.570;9.984;2022-08-16T07:15:15;15.55;;;7.97;;
65189;SDS011;51777;53.570;9.984;2022-08-16T07:17:42;18.02;;;7.82;;
65189;SDS011;51777;53.570;9.984;2022-08-16T07:20:09;11.50;;;8.10;;
65189;SDS011;51777;53.570;9.984;2022-08-16T07:22:37;14.77;;;7.45;;
65189;SDS011;51777;53.570;9.984;2022-08-16T07:25:03;11.77;;;6.88;;
65189;SDS011;51777;53.570;9.984;2022-08-16T07:27:30;13.05;;;7.38;;
65189;SDS011;51777;53.570;9.984;2022-08-16T07:29:56;13.00;;;6.72;;
65189;SDS011;51777;53.570;9.984;2022-08-16T07:32:21;13.45;;;7.40;;
65189;SDS011;51777;53.570;9.984;2022-08-16T07:34:47;14.40;;;7.30;;
65189;SDS011;51777;53.570;9.984;2022-08-16T07:37:12;14.98;;;7.10;;
65189;SDS011;51777;53.570;9.984;2022-08-16T07:39:38;14.82;;;6.35;;
65189;SDS011;51777;53.570;9.984;2022-08-16T07:42:05;12.10;;;6.22;;
65189;SDS011;51777;53.570;9.984;2022-08-16T07:44:30;15.02;;;6.20;;
65189;SDS011;51777;53.570;9.984;2022-08-16T07:46:56;12.38;;;6.60;;
65189;SDS011;51777;53.570;9.984;2022-08-16T07:49:22;11.98;;;7.10;;
65189;SDS011;51777;53.570;9.984;2022-08-16T07:51:48;9.32;;;5.32;;
65189;SDS011;51777;53.570;9.984;2022-08-16T07:54:14;11.00;;;6.05;;
65189;SDS011;51777;53.570;9.984;2022-08-16T07:56:39;9.93;;;5.78;;
65189;SDS011;51777;53.570;9.984;2022-08-16T07:59:05;11.55;;;6.18;;
65189;SDS011;51777;53.570;9.984;2022-08-16T08:01:31;12.77;;;5.55;;
65189;SDS011;51777;53.570;9.984;2022-08-16T08:03:58;13.02;;;6.15;;
65189;SDS011;51777;53.570;9.984;2022-08-16T08:06:26;13.52;;;6.00;;
65189;SDS011;51777;53.570;9.984;2022-08-16T08:08:55;11.45;;;6.22;;
65189;SDS011;51777;53.570;9.984;2022-08-16T08:11:21;12.63;;;5.95;;
65189;SDS011;51777;53.570;9.984;2022-08-16T08:13:48;13.80;;;5.25;;
65189;SDS011;51777;53.570;9.984;2022-08-16T08:16:15;13.73;;;6.10;;
65189;SDS011;51777;53.570;9.984;2022-08-16T08:18:40;10.88;;;6.07;;
65189;SDS011;51777;53.570;9.984;2022-08-16T08:21:06;10.75;;;5.28;;
65189;SDS011;51777;53.570;9.984;2022-08-16T08:23:33;8.30;;;6.03;;
65189;SDS011;51777;53.570;9.984;2022-08-16T08:26:01;14.73;;;5.55;;
65189;SDS011;51777;53.570;9.984;2022-08-16T08:28:27;10.77;;;5.30;;
65189;SDS011;51777;53.570;9.984;2022-08-16T08:30:54;11.88;;;5.30;;
65189;SDS011;51777;53.570;9.984;2022-08-16T08:33:20;10.80;;;4.50;;
65189;SDS011;51777;53.570;9.984;2022-08-16T08:35:45;13.07;;;4.63;;
65189;SDS011;51777;53.570;9.984;2022-08-16T08:38:10;9.93;;;4.93;;
65189;SDS011;51777;53.570;9.984;2022-08-16T08:40:37;8.00;;;4.13;;
65189;SDS011;51777;53.570;9.984;2022-08-16T08:43:03;8.20;;;4.22;;
65189;SDS011;51777;53.570;9.984;2022-08-16T08:45:29;9.40;;;4.18;;
65189;SDS011;51777;53.570;9.984;2022-08-16T08:47:55;10.18;;;4.30;;
65189;SDS011;51777;53.570;9.984;2022-08-16T08:50:21;13.93;;;3.92;;
65189;SDS011;51777;53.570;9.984;2022-08-16T08:52:47;10.05;;;4.47;;
65189;SDS011;51777;53.570;9.984;2022-08-16T08:55:15;9.88;;;4.28;;
65189;SDS011;51777;53.570;9.984;2022-08-16T08:57:41;6.20;;;4.10;;
65189;SDS011;51777;53.570;9.984;2022-08-16T09:00:10;7.20;;;3.58;;
65189;SDS011;51777;53.570;9.984;2022-08-16T09:02:37;7.90;;;3.45;;
65189;SDS011;51777;53.570;9.984;2022-08-16T09:05:03;10.13;;;4.13;;
65189;SDS011;51777;53.570;9.984;2022-08-16T09:07:29;8.13;;;3.83;;
65189;SDS011;51777;53.570;9.984;2022-08-16T09:09:54;11.65;;;3.75;;
65189;SDS011;51777;53.570;9.984;2022-08-16T09:12:20;5.57;;;3.10;;
65189;SDS011;51777;53.570;9.984;2022-08-16T09:14:46;9.93;;;3.28;;
65189;SDS011;51777;53.570;9.984;2022-08-16T09:17:11;9.18;;;3.20;;
65189;SDS011;51777;53.570;9.984;2022-08-16T09:19:37;6.38;;;3.10;;
65189;SDS011;51777;53.570;9.984;2022-08-16T09:22:03;11.68;;;3.22;;
65189;SDS011;51777;53.570;9.984;2022-08-16T09:24:30;7.85;;;3.05;;
65189;SDS011;51777;53.570;9.984;2022-08-16T09:26:56;11.38;;;4.05;;
65189;SDS011;51777;53.570;9.984;2022-08-16T09:29:22;8.20;;;3.45;;
65189;SDS011;51777;53.570;9.984;2022-08-16T09:31:47;15.35;;;3.25;;
65189;SDS011;51777;53.570;9.984;2022-08-16T09:34:13;7.07;;;3.30;;
65189;SDS011;51777;53.570;9.984;2022-08-16T09:36:39;10.82;;;3.50;;
65189;SDS011;51777;53.570;9.984;2022-08-16T09:39:05;11.73;;;3.38;;
65189;SDS011;51777;53.570;9.984;2022-08-16T09:41:30;5.55;;;2.60;;
65189;SDS011;51777;53.570;9.984;2022-08-16T09:43:56;7.32;;;2.90;;
65189;SDS011;51777;53.570;9.984;2022-08-16T09:46:22;5.93;;;2.75;;
65189;SDS011;51777;53.570;9.984;2022-08-16T09:48:49;7.60;;;2.58;;
65189;SDS011;51777;53.570;9.984;2022-08-16T09:51:16;6.70;;;2.75;;
65189;SDS011;51777;53.570;9.984;2022-08-16T09:53:42;6.20;;;2.80;;
65189;SDS011;51777;53.570;9.984;2022-08-16T09:56:12;11.65;;;2.95;;
65189;SDS011;51777;53.570;9.984;2022-08-16T09:58:49;13.32;;;3.25;;
65189;SDS011;51777;53.570;9.984;2022-08-16T10:01:15;11.43;;;3.20;;
65189;SDS011;51777;53.570;9.984;2022-08-16T10:03:42;17.65;;;3.15;;
65189;SDS011;51777;53.570;9.984;2022-08-16T10:06:08;7.40;;;3.05;;
65189;SDS011;51777;53.570;9.984;2022-08-16T10:08:33;6.57;;;2.92;;
65189;SDS011;51777;53.570;9.984;2022-08-16T10:10:59;9.57;;;3.00;;
65189;SDS011;51777;53.570;9.984;2022-08-16T10:13:43;9.02;;;3.40;;
65189;SDS011;51777;53.570;9.984;2022-08-16T10:16:08;9.77;;;3.22;;
65189;SDS011;51777;53.570;9.984;2022-08-16T10:18:38;10.52;;;3.40;;
65189;SDS011;51777;53.570;9.984;2022-08-16T10:21:04;6.85;;;3.13;;
65189;SDS011;51777;53.570;9.984;2022-08-16T10:23:30;6.70;;;3.10;;
65189;SDS011;51777;53.570;9.984;2022-08-16T10:25:56;4.60;;;2.92;;
65189;SDS011;51777;53.570;9.984;2022-08-16T10:28:22;7.20;;;2.90;;
65189;SDS011;51777;53.570;9.984;2022-08-16T10:30:49;14.25;;;2.95;;
65189;SDS011;51777;53.570;9.984;2022-08-16T10:33:15;8.30;;;2.95;;
65189;SDS011;51777;53.570;9.984;2022-08-16T10:35:42;13.27;;;2.80;;
65189;SDS011;51777;53.570;9.984;2022-08-16T10:38:08;10.98;;;3.33;;
65189;SDS011;51777;53.570;9.984;2022-08-16T10:40:37;6.97;;;2.90;;
65189;SDS011;51777;53.570;9.984;2022-08-16T10:43:04;6.68;;;2.80;;
65189;SDS011;51777;53.570;9.984;2022-08-16T10:45:30;9.30;;;2.92;;
65189;SDS011;51777;53.570;9.984;2022-08-16T10:47:56;10.60;;;3.30;;
65189;SDS011;51777;53.570;9.984;2022-08-16T10:50:22;7.78;;;3.20;;
65189;SDS011;51777;53.570;9.984;2022-08-16T10:52:48;6.22;;;3.13;;
65189;SDS011;51777;53.570;9.984;2022-08-16T10:55:14;6.78;;;3.13;;
65189;SDS011;51777;53.570;9.984;2022-08-16T10:57:39;13.40;;;3.70;;
65189;SDS011;51777;53.570;9.984;2022-08-16T11:00:09;5.20;;;3.10;;
65189;SDS011;51777;53.570;9.984;2022-08-16T11:05:05;5.20;;;3.40;;
65189;SDS011;51777;53.570;9.984;2022-08-16T11:07:33;9.65;;;2.97;;
65189;SDS011;51777;53.570;9.984;2022-08-16T11:09:59;5.60;;;2.90;;
65189;SDS011;51777;53.570;9.984;2022-08-16T11:12:26;5.65;;;3.20;;
65189;SDS011;51777;53.570;9.984;2022-08-16T11:15:01;7.65;;;2.95;;
65189;SDS011;51777;53.570;9.984;2022-08-16T11:17:26;5.88;;;2.95;;
65189;SDS011;51777;53.570;9.984;2022-08-16T11:19:52;6.35;;;3.28;;
65189;SDS011;51777;53.570;9.984;2022-08-16T11:22:17;7.15;;;3.20;;
65189;SDS011;51777;53.570;9.984;2022-08-16T11:24:44;4.43;;;3.10;;
65189;SDS011;51777;53.570;9.984;2022-08-16T11:27:14;8.45;;;3.30;;
65189;SDS011;51777;53.570;9.984;2022-08-16T11:29:42;7.07;;;3.25;;
65189;SDS011;51777;53.570;9.984;2022-08-16T11:32:07;7.30;;;3.03;;
65189;SDS011;51777;53.570;9.984;2022-08-16T11:34:32;8.00;;;3.40;;
65189;SDS011;51777;53.570;9.984;2022-08-16T11:36:58;5.93;;;3.17;;
65189;SDS011;51777;53.570;9.984;2022-08-16T11:39:26;6.28;;;3.25;;
65189;SDS011;51777;53.570;9.984;2022-08-16T11:41:53;7.28;;;3.20;;
65189;SDS011;51777;53.570;9.984;2022-08-16T11:44:19;6.20;;;3.45;;
65189;SDS011;51777;53.570;9.984;2022-08-16T11:46:45;6.82;;;3.42;;
65189;SDS011;51777;53.570;9.984;2022-08-16T11:49:10;9.32;;;3.60;;
65189;SDS011;51777;53.570;9.984;2022-08-16T11:51:35;6.47;;;3.40;;
65189;SDS011;51777;53.570;9.984;2022-08-16T11:54:01;9.68;;;3.33;;
65189;SDS011;51777;53.570;9.984;2022-08-16T11:56:26;6.72;;;3.75;;
65189;SDS011;51777;53.570;9.984;2022-08-16T11:58:52;6.47;;;4.03;;
65189;SDS011;51777;53.570;9.984;2022-08-16T12:01:17;9.30;;;4.10;;
65189;SDS011;51777;53.570;9.984;2022-08-16T12:03:43;14.13;;;4.60;;
65189;SDS011;51777;53.570;9.984;2022-08-16T12:06:13;6.97;;;4.00;;
65189;SDS011;51777;53.570;9.984;2022-08-16T12:08:43;12.85;;;4.13;;
65189;SDS011;51777;53.570;9.984;2022-08-16T12:11:09;6.03;;;4.10;;
65189;SDS011;51777;53.570;9.984;2022-08-16T12:13:36;7.47;;;4.85;;
65189;SDS011;51777;53.570;9.984;2022-08-16T12:16:02;13.85;;;5.05;;
65189;SDS011;51777;53.570;9.984;2022-08-16T12:18:28;11.20;;;4.25;;
65189;SDS011;51777;53.570;9.984;2022-08-16T12:20:54;7.25;;;4.25;;
65189;SDS011;51777;53.570;9.984;2022-08-16T12:23:20;10.68;;;4.00;;
65189;SDS011;51777;53.570;9.984;2022-08-16T12:25:45;9.95;;;3.72;;
65189;SDS011;51777;53.570;9.984;2022-08-16T12:28:14;12.70;;;3.88;;
65189;SDS011;51777;53.570;9.984;2022-08-16T12:30:42;7.05;;;3.50;;
65189;SDS011;51777;53.570;9.984;2022-08-16T12:33:10;10.88;;;3.50;;
65189;SDS011;51777;53.570;9.984;2022-08-16T12:35:40;8.80;;;3.75;;
65189;SDS011;51777;53.570;9.984;2022-08-16T12:38:10;10.30;;;4.38;;
65189;SDS011;51777;53.570;9.984;2022-08-16T12:40:37;6.82;;;3.65;;
65189;SDS011;51777;53.570;9.984;2022-08-16T12:43:05;8.18;;;3.60;;
65189;SDS011;51777;53.570;9.984;2022-08-16T12:45:43;7.68;;;3.60;;
65189;SDS011;51777;53.570;9.984;2022-08-16T12:48:11;11.15;;;3.78;;
65189;SDS011;51777;53.570;9.984;2022-08-16T12:51:42;14.15;;;3.75;;
65189;SDS011;51777;53.570;9.984;2022-08-16T12:53:52;10.80;;;3.53;;
65189;SDS011;51777;53.570;9.984;2022-08-16T12:56:24;7.53;;;3.65;;
65189;SDS011;51777;53.570;9.984;2022-08-16T12:58:55;7.53;;;3.53;;
65189;SDS011;51777;53.570;9.984;2022-08-16T13:01:23;10.07;;;3.50;;
65189;SDS011;51777;53.570;9.984;2022-08-16T13:03:53;14.30;;;3.13;;
65189;SDS011;51777;53.570;9.984;2022-08-16T13:06:20;13.65;;;3.33;;
65189;SDS011;51777;53.570;9.984;2022-08-16T13:08:47;10.30;;;3.50;;
65189;SDS011;51777;53.570;9.984;2022-08-16T13:11:17;6.88;;;3.38;;
65189;SDS011;51777;53.570;9.984;2022-08-16T13:13:51;14.32;;;3.40;;
65189;SDS011;51777;53.570;9.984;2022-08-16T13:16:16;4.43;;;3.00;;
65189;SDS011;51777;53.570;9.984;2022-08-16T13:18:42;11.55;;;3.20;;
65189;SDS011;51777;53.570;9.984;2022-08-16T13:21:07;17.70;;;3.15;;
65189;SDS011;51777;53.570;9.984;2022-08-16T13:23:33;8.13;;;3.00;;
65189;SDS011;51777;53.570;9.984;2022-08-16T13:26:00;58.60;;;5.63;;
65189;SDS011;51777;53.570;9.984;2022-08-16T13:28:25;43.53;;;4.63;;
65189;SDS011;51777;53.570;9.984;2022-08-16T13:30:52;7.15;;;3.00;;
65189;SDS011;51777;53.570;9.984;2022-08-16T13:33:21;7.25;;;2.80;;
65189;SDS011;51777;53.570;9.984;2022-08-16T13:35:54;8.73;;;2.85;;
65189;SDS011;51777;53.570;9.984;2022-08-16T13:38:24;9.38;;;2.58;;
65189;SDS011;51777;53.570;9.984;2022-08-16T13:40:50;3.63;;;2.28;;
65189;SDS011;51777;53.570;9.984;2022-08-16T13:43:17;7.70;;;2.63;;
65189;SDS011;51777;53.570;9.984;2022-08-16T13:45:45;4.25;;;2.35;;
65189;SDS011;51777;53.570;9.984;2022-08-16T13:48:11;8.38;;;3.00;;
65189;SDS011;51777;53.570;9.984;2022-08-16T13:50:36;6.63;;;2.80;;
65189;SDS011;51777;53.570;9.984;2022-08-16T13:53:05;8.77;;;2.88;;
65189;SDS011;51777;53.570;9.984;2022-08-16T13:55:30;23.88;;;3.50;;
65189;SDS011;51777;53.570;9.984;2022-08-16T13:57:59;8.02;;;2.88;;
65189;SDS011;51777;53.570;9.984;2022-08-16T14:00:24;8.60;;;2.80;;
65189;SDS011;51777;53.570;9.984;2022-08-16T14:02:51;6.80;;;2.70;;
65189;SDS011;51777;53.570;9.984;2022-08-16T14:05:16;8.55;;;2.67;;
65189;SDS011;51777;53.570;9.984;2022-08-16T14:07:42;4.40;;;2.25;;
65189;SDS011;51777;53.570;9.984;2022-08-16T14:10:11;6.70;;;2.30;;
65189;SDS011;51777;53.570;9.984;2022-08-16T14:12:37;9.82;;;2.08;;
65189;SDS011;51777;53.570;9.984;2022-08-16T14:15:09;10.05;;;2.20;;
65189;SDS011;51777;53.570;9.984;2022-08-16T14:17:37;4.13;;;2.10;;
65189;SDS011;51777;53.570;9.984;2022-08-16T14:20:05;6.78;;;2.15;;
65189;SDS011;51777;53.570;9.984;2022-08-16T14:22:33;6.95;;;2.40;;
65189;SDS011;51777;53.570;9.984;2022-08-16T14:25:03;13.05;;;2.40;;
65189;SDS011;51777;53.570;9.984;2022-08-16T14:27:30;6.60;;;2.15;;
65189;SDS011;51777;53.570;9.984;2022-08-16T14:29:59;4.10;;;1.65;;
65189;SDS011;51777;53.570;9.984;2022-08-16T14:32:27;7.35;;;1.98;;
65189;SDS011;51777;53.570;9.984;2022-08-16T14:34:54;4.38;;;2.00;;
65189;SDS011;51777;53.570;9.984;2022-08-16T14:37:24;6.78;;;2.15;;
65189;SDS011;51777;53.570;9.984;2022-08-16T14:39:50;7.35;;;2.08;;